Latest Weather Observations for Tasman Island

IDT60901

Issued at 11:31 am EDT Sunday 1 March 2015 (issued every 10 minutes, with the page automatically refreshed every 10 minutes)

About weather observations | Map of Hobart area stations | Latest observations for Hobart area | Other Formats
Station Details ID: 094155 Name: TASMAN ISLAND Lat: -43.24 Lon: 148.00 Height: 240.0 m
Data from the previous 72 hours. | See also: Recent months at Tasman Island
Date/Time
EDT
Tmp

°C
App
Tmp
°C
Dew
Point
°C
Rel
Hum
%
Delta-T

°C
Wind Press
QNH
hPa
Press
MSL
hPa
Rain
since
9 am
mm
Dir
 
Spd
km/h
Gust
km/h
Spd
kts
Gust
kts
01/11:30am 12.9 7.0 9.0 77 2.0 WSW 30 59 16 32 1006.6 1006.3 0.0
01/11:00am 12.8 6.9 8.9 77 2.0 WSW 30 65 16 35 1006.1 1005.8 0.0
01/10:33am 12.9 7.2 8.4 74 2.3 SW 28 61 15 33 1005.5 1005.2 0.0
01/10:30am 13.1 7.8 8.6 74 2.3 SW 26 59 14 32 1005.5 1005.2 0.0
01/10:01am 13.2 7.4 8.1 71 2.6 WSW 28 78 15 42 1004.9 1004.6 0.0
01/10:00am 13.2 7.8 7.9 70 2.7 WSW 26 78 14 42 1004.7 1004.4 0.0
01/09:38am 12.6 6.9 8.3 75 2.2 WSW 28 65 15 35 1004.4 1004.1 0.0
01/09:30am 12.6 7.9 9.4 81 1.6 WSW 24 69 13 37 1004.1 1003.8 0.0
01/09:00am 12.4 5.5 8.7 78 1.9 WSW 35 69 19 37 1003.5 1003.2 4.4
01/08:30am 12.4 7.7 9.1 80 1.7 WSW 24 61 13 33 1003.2 1002.9 4.4
01/08:28am 12.4 8.1 9.2 81 1.6 WSW 22 54 12 29 1003.1 1002.8 4.4
01/08:00am 12.3 8.3 9.0 80 1.7 WSW 20 65 11 35 1002.2 1001.8 4.4
01/07:30am 12.5 8.3 9.9 84 1.3 WSW 22 56 12 30 1001.5 1001.1 4.4
01/07:00am 12.4 6.7 9.8 84 1.4 WSW 30 69 16 37 1001.4 1001.0 4.4
01/06:45am 12.4 7.8 9.6 83 1.4 WSW 24 57 13 31 1000.8 1000.5 4.4
01/06:30am 12.3 8.4 10.7 90 0.8 WSW 22 61 12 33 1000.4 1000.1 4.4
01/06:10am 11.9 7.1 10.3 90 0.8 WSW 26 57 14 31 1000.5 1000.2 4.4
01/06:00am 13.8 10.7 8.8 72 2.6 S 15 61 8 33 1000.4 1000.1 4.4
01/05:30am 14.0 11.1 8.0 67 3.0 W 13 50 7 27 999.0 998.6 4.4
01/05:00am 14.4 10.6 7.5 63 3.5 NW 17 46 9 25 999.7 999.4 4.4
01/04:30am 14.8 11.8 7.6 62 3.6 WNW 13 48 7 26 999.3 998.9 4.4
01/04:00am 14.8 12.3 8.1 64 3.4 WSW 11 39 6 21 999.3 998.9 4.4
01/03:30am 14.8 13.0 9.4 70 2.8 SE 9 28 5 15 999.6 999.3 4.4
01/03:00am 15.3 13.3 8.8 65 3.4 NE 9 22 5 12 999.5 999.2 4.4
01/02:30am 15.4 12.3 8.9 65 3.4 NNW 15 41 8 22 999.4 999.0 4.4
01/02:00am 15.2 14.2 10.4 73 2.6 SE 6 15 3 8 999.8 999.5 4.4
01/01:30am 15.3 13.7 11.7 79 2.0 SE 11 30 6 16 999.5 999.2 4.4
01/01:00am 15.9 14.8 12.1 78 2.1 SE 9 26 5 14 999.3 998.9 4.4
01/12:30am 16.6 15.4 12.9 79 2.1 WNW 11 28 6 15 998.9 998.5 4.4
01/12:00am 17.3 15.3 12.6 74 2.7 WNW 15 33 8 18 998.7 998.3 4.4
 
Date/Time
EDT
Tmp

°C
App
Tmp
°C
Dew
Point
°C
Rel
Hum
%
Delta-T

°C
Wind Press
QNH
hPa
Press
MSL
hPa
Rain
since
9 am
mm
Dir
 
Spd
km/h
Gust
km/h
Spd
kts
Gust
kts
28/11:30pm 18.0 16.4 12.9 72 2.9 WNW 13 30 7 16 998.4 998.0 4.4
28/11:00pm 18.4 14.1 13.1 71 3.0 NW 28 39 15 21 998.7 998.3 4.4
28/10:30pm 18.0 14.4 14.1 78 2.3 NW 26 39 14 21 998.6 998.2 4.4
28/10:00pm 16.7 15.1 14.9 89 1.1 N 17 28 9 15 998.1 997.7 4.4
28/09:30pm 17.1 15.0 14.7 86 1.4 N 19 30 10 16 997.9 997.5 4.4
28/09:00pm 17.2 15.6 15.0 87 1.3 NNW 17 28 9 15 997.8 997.4 4.4
28/08:30pm 17.1 14.5 14.9 87 1.3 NNW 22 30 12 16 997.8 997.4 4.4
28/08:00pm 16.8 12.2 15.2 90 0.9 N 33 44 18 24 997.1 996.7 4.4
28/07:30pm 17.6 12.8 14.5 82 1.8 N 33 48 18 26 996.7 996.4 4.4
28/07:00pm 17.3 11.3 14.4 83 1.7 N 39 54 21 29 997.2 996.8 4.4
28/06:30pm 17.3 10.8 14.0 81 1.9 N 41 50 22 27 997.2 996.8 4.4
28/06:00pm 17.4 10.8 13.7 79 2.1 N 41 57 22 31 997.4 997.0 4.4
28/05:52pm 17.5 11.9 13.4 77 2.3 N 35 54 19 29 997.6 997.2 4.4
28/05:30pm 17.5 11.9 13.2 76 2.4 N 35 54 19 29 997.8 997.4 4.4
28/05:00pm 16.3 10.7 13.4 83 1.7 NNE 35 44 19 24 998.0 997.6 4.4
28/04:30pm 15.4 9.1 13.6 89 1.0 NNE 39 50 21 27 998.5 998.1 4.4
28/04:00pm 14.9 8.2 13.3 90 0.9 N 41 52 22 28 998.9 998.5 4.4
28/03:30pm 14.5 7.3 13.2 92 0.7 N 43 54 23 29 999.4 999.0 4.4
28/03:00pm 14.1 7.6 12.8 92 0.7 N 39 50 21 27 1000.2 999.9 4.4
28/02:30pm 13.4 6.9 12.9 97 0.3 N 39 54 21 29 1000.8 1000.5 4.4
28/02:00pm 13.2 7.9 13.2 100 0.0 N 33 44 18 24 1001.4 1001.0 4.4
28/01:30pm 13.2 7.9 13.2 100 0.0 N 33 43 18 23 1001.8 1001.4 3.6
28/01:00pm 13.6 7.7 13.6 100 0.0 N 37 50 20 27 1002.6 1002.2 1.4
28/12:30pm 13.6 7.6 13.4 99 0.1 N 37 50 20 27 1002.8 1002.4 0.8
28/12:00pm 13.5 5.4 13.3 99 0.1 NNE 48 67 26 36 1002.5 1002.1 0.2
28/11:54am 13.4 3.9 12.5 94 0.5 N 54 72 29 39 1002.4 1002.0 0.0
28/11:30am 14.5 4.3 12.0 85 1.4 N 57 72 31 39 1002.4 1002.0 0.0
28/11:00am 14.4 4.7 11.7 84 1.5 NNE 54 72 29 39 1002.7 1002.3 0.0
28/10:41am 14.3 6.1 11.8 85 1.4 NNE 46 65 25 35 1003.2 1002.9 0.0
28/10:30am 14.1 5.9 11.8 86 1.3 NNE 46 63 25 34 1003.4 1003.1 0.0
28/10:25am 14.1 6.2 11.6 85 1.4 NNE 44 63 24 34 1003.4 1003.1 0.0
28/10:00am 14.8 7.5 11.4 80 1.8 NNE 41 54 22 29 1004.0 1003.7 0.0
28/09:44am 13.8 7.5 11.0 83 1.5 NNE 35 61 19 33 1004.6 1004.3 0.0
28/09:30am 13.5 7.5 10.7 83 1.5 NNE 33 48 18 26 1004.8 1004.5 0.0
28/09:19am 13.4 8.4 10.9 85 1.3 NNE 28 48 15 26 1005.1 1004.8 0.0
28/09:00am 13.2 10.1 10.2 82 1.6 NNE 17 41 9 22 1005.3 1005.0 0.4
28/08:30am 12.8 10.1 10.3 85 1.3 NNE 15 32 8 17 1005.4 1005.1 0.4
28/08:00am 12.6 9.8 10.1 85 1.3 NNE 15 37 8 20 1005.6 1005.3 0.4
28/07:30am 12.5 9.9 9.5 82 1.5 NE 13 30 7 16 1006.5 1006.1 0.4
28/07:00am 12.2 10.7 9.0 81 1.6 ENE 7 20 4 11 1006.6 1006.2 0.4
28/06:30am 12.1 10.1 8.8 80 1.7 NE 9 24 5 13 1006.9 1006.6 0.4
28/06:00am 12.0 9.6 8.5 79 1.8 ENE 11 22 6 12 1007.3 1007.0 0.4
28/05:30am 11.9 10.2 8.2 78 1.8 E 7 19 4 10 1007.5 1007.2 0.4
28/05:00am 11.8 10.0 8.1 78 1.8 N 7 19 4 10 1007.9 1007.6 0.4
28/04:30am 11.7 10.0 8.2 79 1.7 ENE 7 19 4 10 1008.2 1007.9 0.4
28/04:00am 11.4 10.3 8.3 81 1.5 N 4 11 2 6 1008.6 1008.3 0.4
28/03:30am 11.1 10.1 7.2 77 1.9 ESE 2 6 1 3 1008.8 1008.5 0.4
28/03:00am 11.4 9.4 7.3 76 2.0 SSE 7 15 4 8 1008.9 1008.6 0.4
28/02:30am 11.6 9.8 7.3 75 2.1 SSW 6 11 3 6 1009.5 1009.2 0.4
28/02:00am 11.6 9.5 6.7 72 2.4 SSW 7 15 4 8 1009.7 1009.4 0.4
28/01:30am 11.5 9.2 7.6 77 1.9 SSW 9 17 5 9 1010.2 1009.8 0.4
28/01:00am 11.4 8.6 7.1 75 2.1 S 11 17 6 9 1010.3 1010.0 0.4
28/12:30am 11.8 8.1 6.5 70 2.5 SSW 15 22 8 12 1010.6 1010.3 0.4
28/12:00am 11.9 8.2 6.4 69 2.6 SSW 15 19 8 10 1010.9 1010.6 0.4
 
Date/Time
EDT
Tmp

°C
App
Tmp
°C
Dew
Point
°C
Rel
Hum
%
Delta-T

°C
Wind Press
QNH
hPa
Press
MSL
hPa
Rain
since
9 am
mm
Dir
 
Spd
km/h
Gust
km/h
Spd
kts
Gust
kts
27/11:30pm 11.7 8.7 7.8 77 1.9 SSW 13 20 7 11 1010.8 1010.5 0.4
27/11:00pm 11.4 8.5 8.1 80 1.6 S 13 22 7 12 1010.7 1010.4 0.4
27/10:30pm 11.5 8.6 8.2 80 1.6 SSW 13 24 7 13 1011.0 1010.7 0.4
27/10:00pm 11.5 8.6 8.2 80 1.6 S 13 22 7 12 1010.9 1010.6 0.4
27/09:30pm 11.7 8.1 8.4 80 1.6 S 17 24 9 13 1010.9 1010.6 0.4
27/09:00pm 12.1 8.5 8.4 78 1.9 SSW 17 26 9 14 1010.8 1010.5 0.4
27/08:30pm 12.2 8.1 8.5 78 1.9 SSW 20 30 11 16 1010.6 1010.3 0.4
27/08:00pm 12.1 7.6 8.4 78 1.9 SSW 22 35 12 19 1010.4 1010.1 0.4
27/07:30pm 12.2 7.0 8.7 79 1.8 SSW 26 41 14 22 1010.1 1009.7 0.4
27/07:00pm 12.2 7.0 9.0 81 1.6 SSW 26 41 14 22 1010.1 1009.7 0.4
27/06:30pm 12.4 7.5 10.0 85 1.2 SSW 26 41 14 22 1009.9 1009.6 0.4
27/06:00pm 12.3 8.9 11.2 93 0.6 SSW 20 35 11 19 1009.9 1009.6 0.4
27/05:30pm 14.1 13.2 12.7 91 0.8 SW 9 17 5 9 1009.6 1009.3 0.2
27/05:00pm 14.2 14.6 13.7 97 0.3 N 4 7 2 4 1009.4 1009.1 0.2
27/04:30pm 13.5 13.2 13.3 99 0.1 NE 7 9 4 5 1009.1 1008.8 0.2
27/04:00pm 13.3 12.2 13.1 99 0.1 NE 11 15 6 8 1009.3 1009.0 0.2
27/03:30pm 12.6 12.0 11.8 95 0.4 NE 6 13 3 7 1009.6 1009.3 0.0
27/03:00pm 13.3 11.1 12.2 93 0.6 NNE 15 20 8 11 1009.6 1009.3 0.0
27/02:30pm 13.7 11.8 11.9 89 1.0 NE 13 24 7 13 1009.5 1009.2 0.0
27/02:00pm 14.8 12.0 11.2 79 1.9 NE 17 24 9 13 1009.6 1009.3 0.0
27/01:30pm 14.6 11.6 12.1 85 1.4 NNE 19 32 10 17 1010.2 1009.8 0.0
27/01:00pm 13.5 10.1 10.7 83 1.5 NNE 19 32 10 17 1010.2 1009.8 0.0
27/12:30pm 13.4 10.5 9.8 79 1.9 NNE 15 33 8 18 1010.1 1009.7 0.0
27/12:00pm 13.2 9.9 9.5 78 1.9 NNE 17 30 9 16 1010.4 1010.1 0.0
27/11:30am 13.5 9.9 9.7 78 2.0 NNE 19 30 10 16 1010.8 1010.5 0.0
27/11:00am 12.6 9.7 9.6 82 1.5 NE 15 26 8 14 1011.1 1010.8 0.0
27/10:30am 13.2 10.2 9.3 77 2.0 NNE 15 26 8 14 1011.2 1010.9 0.0
27/10:00am 13.3 10.6 8.8 74 2.3 NE 13 22 7 12 1011.5 1011.2 0.0
27/09:30am 13.8 9.7 8.6 71 2.6 NE 20 33 11 18 1010.7 1010.4 0.0
27/09:00am 13.2 9.9 8.1 71 2.6 NNE 15 28 8 15 1010.8 1010.5 0.6
27/08:30am 12.9 10.4 8.0 72 2.4 NE 11 22 6 12 1011.2 1010.9 0.6
27/08:00am 12.5 9.1 7.8 73 2.3 NNE 15 22 8 12 1011.4 1011.1 0.6
27/07:30am 12.0 9.3 7.3 73 2.3 NE 11 20 6 11 1011.5 1011.2 0.6
27/07:00am 12.1 9.8 7.4 73 2.3 NNE 9 17 5 9 1011.5 1011.2 0.6
27/06:30am 12.2 10.4 7.3 72 2.4 NNE 6 15 3 8 1011.1 1010.8 0.6
27/06:00am 12.2 9.9 7.3 72 2.4 NNE 9 17 5 9 1010.8 1010.5 0.6
27/05:30am 12.2 10.2 6.9 70 2.6 NNE 7 17 4 9 1010.6 1010.3 0.6
27/05:00am 12.2 9.3 6.3 67 2.8 NE 11 20 6 11 1010.5 1010.2 0.6
27/04:30am 12.2 9.6 6.0 66 3.0 NE 9 17 5 9 1010.7 1010.4 0.6
27/04:00am 11.8 9.2 5.9 67 2.8 NE 9 15 5 8 1010.8 1010.5 0.6
27/03:30am 11.9 9.2 5.8 66 2.9 NE 9 17 5 9 1011.2 1010.9 0.6
27/03:00am 12.1 9.8 5.7 65 3.0 E 7 19 4 10 1011.1 1010.8 0.6
27/02:30am 12.1 10.0 5.7 65 3.0 ENE 6 15 3 8 1011.2 1010.9 0.6
27/02:00am 12.0 10.3 6.1 67 2.8 SW 4 9 2 5 1011.5 1011.2 0.6
27/01:30am 12.0 10.3 6.1 67 2.8 N 4 9 2 5 1011.8 1011.5 0.6
27/01:00am 11.8 10.5 5.9 67 2.8 SSW 2 6 1 3 1012.1 1011.8 0.6
27/12:30am 11.9 9.8 5.8 66 2.9 S 6 11 3 6 1012.0 1011.7 0.6
27/12:00am 11.9 9.5 5.3 64 3.1 S 7 13 4 7 1012.2 1011.9 0.6
 
Date/Time
EDT
Tmp

°C
App
Tmp
°C
Dew
Point
°C
Rel
Hum
%
Delta-T

°C
Wind Press
QNH
hPa
Press
MSL
hPa
Rain
since
9 am
mm
Dir
 
Spd
km/h
Gust
km/h
Spd
kts
Gust
kts
26/11:30pm 12.0 9.6 5.2 63 3.2 SSW 7 13 4 7 1012.3 1012.0 0.6
26/11:00pm 12.0 8.8 5.2 63 3.2 SSW 11 17 6 9 1012.3 1012.0 0.6
26/10:30pm 12.1 8.6 5.3 63 3.2 SSW 13 19 7 10 1012.4 1012.1 0.6
26/10:00pm 12.0 8.8 5.2 63 3.2 SSW 11 17 6 9 1012.3 1012.0 0.6
26/09:30pm 12.2 9.5 5.6 64 3.1 SSW 9 17 5 9 1012.0 1011.7 0.6
26/09:00pm 12.1 8.3 5.7 65 3.0 SSW 15 24 8 13 1011.6 1011.3 0.6
26/08:30pm 12.0 8.1 5.2 63 3.2 SSW 15 26 8 14 1011.0 1010.7 0.6
26/08:00pm 12.0 7.3 5.0 62 3.3 SSW 19 28 10 15 1010.7 1010.4 0.6
26/07:30pm 12.1 7.1 4.6 60 3.5 SSW 20 32 11 17 1010.3 1010.0 0.6
26/07:00pm 12.4 7.7 6.0 65 3.1 SSW 20 32 11 17 1009.8 1009.5 0.6
26/06:30pm 12.3 6.8 5.9 65 3.0 SSW 24 35 13 19 1009.6 1009.3 0.6
26/06:00pm 12.4 7.2 5.3 62 3.3 SSW 22 39 12 21 1009.4 1009.1 0.6
26/05:30pm 12.8 7.0 6.2 64 3.2 SSW 26 44 14 24 1008.9 1008.6 0.6
26/05:00pm 12.8 7.2 7.0 68 2.8 SSW 26 39 14 21 1009.0 1008.7 0.6
26/04:30pm 13.3 8.0 8.4 72 2.5 SSW 26 41 14 22 1008.5 1008.2 0.6
26/04:21pm 12.8 7.3 9.1 78 1.9 SSW 28 48 15 26 1008.5 1008.2 0.6
26/04:00pm 11.8 6.1 8.5 80 1.7 SSW 28 43 15 23 1008.7 1008.4 0.6
26/03:30pm 11.7 6.1 11.5 99 0.1 SSW 32 48 17 26 1008.6 1008.3 0.6
26/03:00pm 11.6 6.0 11.6 100 0.0 SSW 32 44 17 24 1008.4 1008.1 0.4
26/02:34pm 12.6 8.0 12.4 99 0.1 SSW 28 48 15 26 1007.9 1007.6 0.0
26/02:30pm 12.6 8.8 12.4 99 0.1 SSW 24 41 13 22 1008.0 1007.7 0.0
26/02:00pm 12.8 8.3 12.6 99 0.1 SSW 28 44 15 24 1007.6 1007.3 0.0
26/01:43pm 13.2 8.7 12.7 97 0.3 SSW 28 52 15 28 1007.2 1006.9 0.0
26/01:30pm 13.7 10.1 12.9 95 0.4 SSW 24 39 13 21 1007.2 1006.9 0.0
26/01:00pm 17.1 15.8 11.4 69 3.1 WSW 9 28 5 15 1006.8 1006.5 0.0
26/12:30pm 18.5 17.1 10.8 61 4.2 NNW 9 32 5 17 1006.6 1006.2 0.0
26/12:00pm 18.3 16.5 10.9 62 4.1 W 11 28 6 15 1006.8 1006.5 0.0

Latest Capital City Observations: Canberra | Sydney | Melbourne | Brisbane | Adelaide | Perth | Hobart | Darwin

Other Formats:

Comma delimited format used in spreadsheet applications
http://www.bom.gov.au/fwo/IDT60901/IDT60901.95986.axf

JavaScript Object Notation format (JSON) in row-major order
http://www.bom.gov.au/fwo/IDT60901/IDT60901.95986.json